Time;durP1;ratioP1;P1;durP2;ratioP2;P2;SDS_P1;SDS_P2;PMS_P1;PMS_P2;Temp;Humidity;BMP_temperature;BMP_pressure;BME280_temperature;BME280_humidity;BME280_pressure;Samples;Min_cycle;Max_cycle;Signal;HPM_P1;HPM_P2
2023/10/30 00:02:23;;;;;;;23.50;11.70;;;;;;;16.36;53.32;100039.41;107905;1254;61723;-66
2023/10/30 00:04:51;;;;;;;27.40;12.50;;;;;;;16.48;52.97;100036.02;108017;1260;59477;-66
2023/10/30 00:07:18;;;;;;;27.10;12.40;;;;;;;16.60;52.75;100035.80;108048;1254;71873;-67
2023/10/30 00:09:46;;;;;;;30.50;12.80;;;;;;;16.52;52.73;100037.17;107940;1254;68649;-67
2023/10/30 00:12:13;;;;;;;27.10;12.00;;;;;;;16.45;52.93;100036.73;107948;1257;72841;-67
2023/10/30 00:14:41;;;;;;;25.40;12.00;;;;;;;16.47;52.91;100037.83;107991;1254;61871;-67
2023/10/30 00:17:08;;;;;;;29.60;12.70;;;;;;;16.44;52.87;100042.84;107970;1254;60376;-67
2023/10/30 00:19:36;;;;;;;26.30;12.60;;;;;;;16.58;52.53;100043.89;107986;1254;71765;-67
2023/10/30 00:22:03;;;;;;;22.90;11.30;;;;;;;16.64;52.31;100043.87;107978;1254;69597;-66
2023/10/30 00:24:32;;;;;;;27.40;12.00;;;;;;;16.56;52.44;100045.61;107973;1257;71768;-67
2023/10/30 00:27:00;;;;;;;29.20;12.70;;;;;;;16.49;52.66;100040.58;107889;1254;60603;-67
2023/10/30 00:29:27;;;;;;;22.00;12.00;;;;;;;16.56;52.45;100038.36;107937;1254;59971;-66
2023/10/30 00:31:54;;;;;;;25.10;11.70;;;;;;;16.64;52.19;100037.66;107932;1254;73103;-68
2023/10/30 00:34:22;;;;;;;23.70;11.70;;;;;;;16.72;51.98;100039.33;107858;1254;69173;-66
2023/10/30 00:36:49;;;;;;;24.90;11.80;;;;;;;16.74;51.97;100037.92;107917;1257;72041;-67
2023/10/30 00:39:17;;;;;;;22.50;11.40;;;;;;;16.66;51.99;100035.57;107778;1257;61669;-67
2023/10/30 00:41:45;;;;;;;25.70;11.50;;;;;;;16.57;52.26;100037.23;108044;1253;60000;-66
2023/10/30 00:44:12;;;;;;;22.90;12.00;;;;;;;16.62;52.13;100032.66;107788;1254;72961;-66
2023/10/30 00:46:40;;;;;;;24.20;11.50;;;;;;;16.63;52.01;100032.05;107918;1254;69942;-66
2023/10/30 00:49:07;;;;;;;23.90;10.60;;;;;;;16.51;52.27;100033.87;107979;1254;72689;-66
2023/10/30 00:51:35;;;;;;;23.30;11.20;;;;;;;16.48;52.34;100037.08;107977;1254;60752;-66
2023/10/30 00:54:03;;;;;;;24.60;11.60;;;;;;;16.48;52.36;100034.59;107930;1254;59683;-66
2023/10/30 00:56:30;;;;;;;28.30;11.50;;;;;;;16.59;52.17;100034.83;108123;1254;73002;-66
2023/10/30 00:58:58;;;;;;;19.20;11.20;;;;;;;16.64;51.91;100032.52;107944;1254;70456;-67
2023/10/30 01:01:25;;;;;;;23.50;11.30;;;;;;;16.69;51.80;100030.27;107916;1254;71709;-67
2023/10/30 01:03:53;;;;;;;19.50;10.50;;;;;;;16.71;51.75;100032.60;107947;1259;60381;-66
2023/10/30 01:06:20;;;;;;;20.80;10.70;;;;;;;16.68;51.73;100030.66;107953;1254;60195;-66
2023/10/30 01:08:48;;;;;;;26.40;11.60;;;;;;;16.73;51.67;100027.50;107892;1254;73190;-67
2023/10/30 01:11:15;;;;;;;21.30;11.90;;;;;;;16.69;51.63;100025.86;108043;1254;68714;-67
2023/10/30 01:13:43;;;;;;;25.80;11.80;;;;;;;16.61;51.71;100027.41;107956;1254;72735;-67
2023/10/30 01:16:10;;;;;;;24.60;12.20;;;;;;;16.61;51.81;100025.84;107938;1254;61722;-66
2023/10/30 01:18:39;;;;;;;20.00;10.80;;;;;;;16.56;51.79;100026.09;107881;1257;59193;-64
2023/10/30 01:21:09;;;;;;;23.40;11.40;;;;;;;16.54;51.93;100027.29;107952;1254;73145;-66
2023/10/30 01:23:37;;;;;;;21.50;10.90;;;;;;;16.49;52.09;100026.77;107958;1253;70829;-66
2023/10/30 01:26:04;;;;;;;22.60;11.30;;;;;;;16.51;51.87;100031.91;107844;1257;72497;-65
2023/10/30 01:28:32;;;;;;;23.20;10.70;;;;;;;16.54;51.71;100033.86;107937;1254;61648;-66
2023/10/30 01:30:59;;;;;;;22.70;10.40;;;;;;;16.55;51.61;100032.51;107947;1254;60830;-66
2023/10/30 01:33:27;;;;;;;22.00;10.50;;;;;;;16.53;51.78;100029.10;107982;1254;73837;-66
2023/10/30 01:35:55;;;;;;;22.80;11.40;;;;;;;16.56;51.71;100031.41;108004;1254;69515;-66
2023/10/30 01:38:22;;;;;;;21.50;10.50;;;;;;;16.71;51.40;100025.36;107958;1254;71491;-66
2023/10/30 01:40:50;;;;;;;22.50;11.10;;;;;;;16.79;51.21;100028.58;107915;1258;61689;-66
2023/10/30 01:43:31;;;;;;;28.20;11.40;;;;;;;16.86;50.98;100027.08;107979;1255;60431;-67
2023/10/30 01:45:58;;;;;;;23.50;10.40;;;;;;;16.92;50.86;100033.95;108087;1254;73817;-67
2023/10/30 01:48:28;;;;;;;20.50;10.30;;;;;;;16.89;50.89;100031.32;107961;1254;70400;-67
2023/10/30 01:50:56;;;;;;;24.30;11.60;;;;;;;16.78;50.99;100034.29;107932;1254;71579;-66
2023/10/30 01:53:23;;;;;;;24.20;12.00;;;;;;;16.71;51.18;100031.20;107869;1254;60427;-67
2023/10/30 01:55:50;;;;;;;22.60;10.60;;;;;;;16.65;51.39;100029.08;108028;1253;60417;-67
2023/10/30 01:58:18;;;;;;;23.30;11.40;;;;;;;16.71;51.23;100025.34;107806;1254;74155;-66
2023/10/30 02:00:46;;;;;;;23.80;11.70;;;;;;;16.62;51.52;100022.72;107763;1254;68708;-66
2023/10/30 02:03:14;;;;;;;27.10;11.40;;;;;;;16.64;51.59;100019.23;108020;1255;72752;-65
2023/10/30 02:05:41;;;;;;;20.70;10.40;;;;;;;16.67;51.35;100018.15;107900;1254;61614;-66
2023/10/30 02:08:09;;;;;;;19.40;10.10;;;;;;;16.62;51.49;100020.98;107983;1258;59182;-67
2023/10/30 02:10:36;;;;;;;22.40;9.90;;;;;;;16.70;51.35;100017.45;107807;1254;72914;-67
2023/10/30 02:13:05;;;;;;;20.20;10.70;;;;;;;16.62;51.42;100011.05;107985;1254;70491;-67
2023/10/30 02:15:32;;;;;;;23.70;10.80;;;;;;;16.55;51.61;100007.76;107907;1254;72938;-68
2023/10/30 02:18:00;;;;;;;23.50;11.00;;;;;;;16.31;52.14;99999.02;108053;1254;61107;-67
2023/10/30 02:20:27;;;;;;;23.30;10.60;;;;;;;16.42;52.06;99994.95;107814;1254;59314;-67
2023/10/30 02:22:55;;;;;;;20.40;10.40;;;;;;;16.45;51.91;99988.75;107884;1254;73892;-66
2023/10/30 02:25:22;;;;;;;24.50;10.80;;;;;;;16.45;51.87;99982.52;108015;1254;70589;-66
2023/10/30 02:27:50;;;;;;;21.30;10.40;;;;;;;16.36;52.14;99992.83;107907;1254;71372;-66
2023/10/30 02:30:19;;;;;;;20.30;10.10;;;;;;;16.27;52.24;100000.33;107943;1256;60466;-67
2023/10/30 02:32:47;;;;;;;19.60;9.80;;;;;;;16.45;51.97;100000.09;107914;1254;60447;-66
2023/10/30 02:35:16;;;;;;;21.10;9.70;;;;;;;16.53;51.75;99999.22;107969;1254;75926;-66
2023/10/30 02:37:44;;;;;;;20.40;10.00;;;;;;;16.41;51.86;100003.13;107965;1254;68036;-66
2023/10/30 02:40:12;;;;;;;23.90;10.90;;;;;;;16.45;51.90;99999.69;107998;1254;72434;-67
2023/10/30 02:42:40;;;;;;;22.80;10.00;;;;;;;16.53;51.67;100003.27;107947;1254;62576;-67
2023/10/30 02:45:08;;;;;;;21.60;10.60;;;;;;;16.23;52.12;100003.05;107997;1254;60533;-67
2023/10/30 02:47:35;;;;;;;22.30;10.50;;;;;;;16.37;51.99;100000.07;107936;1254;72970;-66
2023/10/30 02:50:03;;;;;;;18.70;9.20;;;;;;;16.48;51.68;99996.88;107878;1254;69949;-67
2023/10/30 02:52:30;;;;;;;19.70;10.50;;;;;;;16.61;51.39;99995.30;107881;1254;71713;-66
2023/10/30 02:54:58;;;;;;;23.20;10.30;;;;;;;16.61;51.33;99996.02;107924;1256;60392;-66
2023/10/30 02:57:25;;;;;;;23.20;10.70;;;;;;;16.63;51.27;99999.11;107968;1254;60419;-66
2023/10/30 02:59:53;;;;;;;23.50;11.00;;;;;;;16.51;51.47;100001.25;107944;1254;73577;-65
2023/10/30 03:02:20;;;;;;;21.40;10.70;;;;;;;16.54;51.33;100003.35;108090;1254;68885;-67
2023/10/30 03:04:48;;;;;;;21.70;10.40;;;;;;;16.54;51.31;100008.38;108074;1258;71237;-66
2023/10/30 03:07:16;;;;;;;21.30;10.20;;;;;;;16.48;51.47;100023.11;108054;1254;60424;-65
2023/10/30 03:09:43;;;;;;;18.40;10.20;;;;;;;16.45;51.51;100023.62;108080;1253;60303;-66
2023/10/30 03:12:11;;;;;;;17.40;9.70;;;;;;;16.43;51.55;100019.47;108041;1259;71984;-65
2023/10/30 03:14:38;;;;;;;17.00;9.60;;;;;;;16.40;51.50;100015.63;108073;1254;68863;-66
2023/10/30 03:17:05;;;;;;;19.10;9.50;;;;;;;16.45;51.47;100002.73;107960;1257;71336;-66
2023/10/30 03:19:34;;;;;;;18.30;9.80;;;;;;;16.61;51.20;99992.16;108168;1253;61637;-67
2023/10/30 03:22:02;;;;;;;22.20;10.30;;;;;;;16.54;51.32;99991.84;108111;1254;59733;-66
2023/10/30 03:24:29;;;;;;;21.10;9.50;;;;;;;16.56;51.21;99992.59;108071;1254;73780;-66
2023/10/30 03:26:57;;;;;;;19.50;10.60;;;;;;;16.52;51.30;99986.50;108085;1254;69115;-66
2023/10/30 03:29:24;;;;;;;21.20;10.70;;;;;;;16.52;51.20;99992.71;108114;1254;72525;-66
2023/10/30 03:31:54;;;;;;;17.60;9.90;;;;;;;16.60;51.09;99994.36;108103;1254;61619;-66
2023/10/30 03:34:22;;;;;;;18.40;9.20;;;;;;;16.57;51.08;99989.52;108139;1253;60290;-66
2023/10/30 03:36:50;;;;;;;22.50;10.00;;;;;;;16.62;51.00;99987.10;108173;1254;73871;-66
2023/10/30 03:39:17;;;;;;;19.70;9.60;;;;;;;16.53;51.15;99985.35;108223;1253;68985;-66
2023/10/30 03:41:45;;;;;;;23.50;11.00;;;;;;;16.31;51.55;99981.80;108146;1255;72634;-66
2023/10/30 03:44:12;;;;;;;21.80;10.00;;;;;;;16.39;51.48;99987.31;108025;1253;61756;-66
2023/10/30 03:46:39;;;;;;;18.00;9.10;;;;;;;16.36;51.38;99982.01;108080;1254;60436;-66
2023/10/30 03:49:10;;;;;;;20.00;10.70;;;;;;;16.15;51.84;99983.30;108126;1254;72633;-65
2023/10/30 03:51:37;;;;;;;21.70;10.10;;;;;;;16.12;52.19;99982.31;108102;1253;69282;-67
2023/10/30 03:54:05;;;;;;;22.50;10.90;;;;;;;16.15;51.99;99980.48;108124;1254;71497;-66
2023/10/30 03:56:32;;;;;;;18.80;10.00;;;;;;;16.17;52.19;99985.02;108035;1253;61719;-66
2023/10/30 03:59:00;;;;;;;25.80;10.60;;;;;;;16.11;52.20;99983.61;108087;1254;60429;-67
2023/10/30 04:01:27;;;;;;;20.40;10.40;;;;;;;16.15;52.14;99983.19;107969;1254;73253;-67
2023/10/30 04:03:55;;;;;;;19.70;10.60;;;;;;;16.31;51.95;99980.61;107974;1254;69268;-67
2023/10/30 04:06:22;;;;;;;19.70;10.20;;;;;;;16.37;51.66;99974.84;107979;1254;71466;-67
2023/10/30 04:08:50;;;;;;;22.10;10.90;;;;;;;16.33;51.74;99981.30;108026;1254;60482;-66
2023/10/30 04:11:18;;;;;;;21.90;11.10;;;;;;;16.44;51.61;99977.24;107906;1254;60274;-66
2023/10/30 04:13:45;;;;;;;23.30;11.50;;;;;;;16.41;51.65;99976.40;107820;1254;73801;-66
2023/10/30 04:16:14;;;;;;;27.30;11.00;;;;;;;16.33;51.87;99981.30;107992;1254;68675;-66
2023/10/30 04:18:41;;;;;;;23.30;11.00;;;;;;;16.47;51.62;99977.28;107912;1254;71427;-66
2023/10/30 04:21:09;;;;;;;22.10;10.70;;;;;;;16.60;51.34;99972.18;107986;1254;61725;-66
2023/10/30 04:23:38;;;;;;;24.20;11.30;;;;;;;16.62;51.33;99973.09;108030;1254;58984;-67
2023/10/30 04:26:05;;;;;;;24.30;10.50;;;;;;;16.59;51.25;99972.41;107907;1254;72827;-66
2023/10/30 04:28:33;;;;;;;25.60;10.80;;;;;;;16.53;51.39;99967.45;108156;1254;70062;-66
2023/10/30 04:31:00;;;;;;;22.50;11.00;;;;;;;16.66;51.07;99968.08;108082;1254;72698;-67
2023/10/30 04:33:27;;;;;;;20.40;10.10;;;;;;;16.61;51.05;99971.54;108090;1254;60489;-67
2023/10/30 04:35:55;;;;;;;25.00;11.30;;;;;;;16.69;50.96;99969.14;107939;1253;60271;-67
2023/10/30 04:38:23;;;;;;;22.30;10.80;;;;;;;16.82;50.63;99971.66;107993;1254;74069;-67
2023/10/30 04:40:50;;;;;;;21.20;10.80;;;;;;;16.80;50.71;99972.65;108013;1254;69962;-67
2023/10/30 04:43:17;;;;;;;18.50;10.30;;;;;;;16.83;50.55;99969.64;108106;1254;71390;-67
2023/10/30 04:45:45;;;;;;;22.60;10.60;;;;;;;16.77;50.59;99976.40;108038;1254;60527;-66
2023/10/30 04:48:12;;;;;;;24.30;11.40;;;;;;;16.60;51.05;99975.52;108083;1259;60339;-66
2023/10/30 04:50:40;;;;;;;20.00;10.50;;;;;;;16.77;50.61;99970.54;107977;1254;73859;-65
2023/10/30 04:53:07;;;;;;;18.40;10.30;;;;;;;16.79;50.60;99966.72;107985;1259;70286;-66
2023/10/30 04:55:34;;;;;;;21.60;10.50;;;;;;;16.77;50.63;99969.30;108089;1254;72517;-67
2023/10/30 04:58:02;;;;;;;22.50;10.00;;;;;;;16.78;50.62;99966.91;108025;1253;61825;-67
2023/10/30 05:00:29;;;;;;;21.30;10.50;;;;;;;16.90;50.28;99960.83;108098;1254;60412;-68
2023/10/30 05:02:56;;;;;;;26.90;13.70;;;;;;;16.83;50.41;99961.51;108173;1253;73828;-66
2023/10/30 05:05:24;;;;;;;22.10;10.40;;;;;;;16.73;50.52;99954.34;108092;1254;70160;-67
2023/10/30 05:07:51;;;;;;;21.80;11.50;;;;;;;16.94;50.15;99950.33;108074;1257;72791;-66
2023/10/30 05:10:19;;;;;;;20.30;10.50;;;;;;;16.91;50.16;99951.93;108040;1254;61640;-68
2023/10/30 05:12:46;;;;;;;18.90;9.50;;;;;;;16.87;50.16;99951.27;108231;1254;60328;-66
2023/10/30 05:15:14;;;;;;;19.20;9.50;;;;;;;16.91;50.12;99946.20;108164;1253;73858;-68
2023/10/30 05:17:41;;;;;;;19.00;9.80;;;;;;;16.79;50.33;99949.67;108068;1254;68796;-66
2023/10/30 05:20:09;;;;;;;19.30;10.10;;;;;;;16.83;50.39;99947.33;108054;1253;72477;-67
2023/10/30 05:22:37;;;;;;;20.60;9.70;;;;;;;16.93;50.18;99944.89;107996;1257;60308;-65
2023/10/30 05:25:05;;;;;;;19.10;9.60;;;;;;;16.97;50.23;99945.34;108031;1254;60268;-67
2023/10/30 05:27:33;;;;;;;21.30;9.30;;;;;;;17.01;50.23;99945.05;108095;1253;72553;-67
2023/10/30 05:30:01;;;;;;;20.30;9.40;;;;;;;16.98;50.14;99951.27;108183;1253;68040;-66
2023/10/30 05:32:28;;;;;;;19.40;9.40;;;;;;;17.05;50.15;99955.13;108065;1253;72478;-67
2023/10/30 05:34:56;;;;;;;18.00;9.40;;;;;;;17.12;50.10;99956.05;108085;1254;61671;-67
2023/10/30 05:37:23;;;;;;;19.70;9.40;;;;;;;17.26;49.67;99965.00;108143;1254;60220;-67
2023/10/30 05:39:51;;;;;;;24.30;9.70;;;;;;;17.35;49.49;99967.05;108190;1254;73967;-67
2023/10/30 05:42:18;;;;;;;17.20;9.80;;;;;;;17.35;49.54;99968.14;108129;1253;68728;-67
2023/10/30 05:44:46;;;;;;;16.20;9.20;;;;;;;17.67;49.14;99965.59;108249;1254;71380;-66
2023/10/30 05:47:15;;;;;;;18.00;9.50;;;;;;;17.80;48.87;99961.91;108026;1254;60938;-67
2023/10/30 05:49:42;;;;;;;19.20;9.30;;;;;;;17.90;48.62;99963.31;108147;1254;60268;-67
2023/10/30 05:52:10;;;;;;;21.00;9.90;;;;;;;18.00;48.46;99959.81;108093;1257;74083;-66
2023/10/30 05:54:37;;;;;;;19.80;10.20;;;;;;;18.05;48.15;99956.23;108062;1254;69029;-67
2023/10/30 05:57:05;;;;;;;22.20;10.70;;;;;;;18.24;47.82;99960.39;107997;1253;72690;-67
2023/10/30 05:59:32;;;;;;;22.70;11.00;;;;;;;18.43;47.49;99961.48;107885;1254;60377;-67
2023/10/30 06:02:00;;;;;;;20.10;9.10;;;;;;;18.63;47.06;99966.79;108043;1254;60441;-66
2023/10/30 06:04:28;;;;;;;22.20;10.00;;;;;;;18.85;46.56;99969.88;107967;1254;73164;-66
2023/10/30 06:06:55;;;;;;;20.60;10.20;;;;;;;19.09;46.45;99977.70;108004;1254;70301;-67
2023/10/30 06:09:24;;;;;;;21.10;10.80;;;;;;;19.50;45.25;99979.05;108002;1256;72667;-67
2023/10/30 06:11:52;;;;;;;26.50;11.10;;;;;;;19.84;44.82;99985.70;107947;1255;61829;-67
2023/10/30 06:14:19;;;;;;;24.90;10.60;;;;;;;20.07;44.02;99987.63;107910;1254;60036;-66
2023/10/30 06:16:47;;;;;;;24.10;11.40;;;;;;;20.29;43.37;99979.33;108052;1254;73818;-67
2023/10/30 06:19:15;;;;;;;23.10;11.00;;;;;;;20.66;42.51;99975.78;108027;1258;70149;-67
2023/10/30 06:21:43;;;;;;;19.60;9.80;;;;;;;21.11;41.35;99973.70;107856;1257;72651;-66
2023/10/30 06:24:11;;;;;;;24.50;10.00;;;;;;;21.66;40.58;99967.85;107964;1254;61628;-67
2023/10/30 06:26:40;;;;;;;19.90;10.60;;;;;;;22.11;39.56;99961.95;108008;1254;60361;-66
2023/10/30 06:29:08;;;;;;;18.00;9.20;;;;;;;22.50;38.63;99962.86;107993;1254;73752;-66
2023/10/30 06:31:36;;;;;;;16.10;8.20;;;;;;;22.65;38.09;99967.55;107979;1256;69965;-67
2023/10/30 06:34:03;;;;;;;17.40;8.60;;;;;;;22.63;37.56;99964.73;107914;1253;73140;-67
2023/10/30 06:36:31;;;;;;;13.00;7.30;;;;;;;22.56;37.87;99966.05;107967;1259;62157;-67
2023/10/30 06:39:01;;;;;;;17.90;8.30;;;;;;;22.74;37.59;99962.29;108029;1254;60411;-66
2023/10/30 06:41:28;;;;;;;15.20;7.90;;;;;;;22.73;37.19;99961.52;108078;1254;74298;-66
2023/10/30 06:43:56;;;;;;;18.40;9.00;;;;;;;22.77;37.24;99959.80;107977;1254;70336;-66
2023/10/30 06:46:23;;;;;;;20.10;10.00;;;;;;;22.98;37.05;99957.09;108014;1255;71447;-65
2023/10/30 06:48:51;;;;;;;18.50;9.40;;;;;;;22.70;36.99;99958.23;108042;1256;60309;-67
2023/10/30 06:51:18;;;;;;;17.60;9.40;;;;;;;22.65;37.06;99960.06;107958;1258;60818;-66
2023/10/30 06:53:46;;;;;;;18.40;8.40;;;;;;;22.58;36.97;99963.90;107971;1254;73797;-67
2023/10/30 06:56:13;;;;;;;19.80;10.60;;;;;;;22.70;37.05;99960.66;107947;1254;69919;-67
2023/10/30 06:58:41;;;;;;;16.40;9.10;;;;;;;22.65;36.95;99957.90;107956;1257;72724;-66
2023/10/30 07:01:08;;;;;;;18.20;10.20;;;;;;;22.74;36.95;99954.58;108026;1254;60024;-66
2023/10/30 07:03:36;;;;;;;20.50;10.70;;;;;;;22.72;36.65;99958.19;108147;1253;60519;-66
2023/10/30 07:06:04;;;;;;;16.70;8.80;;;;;;;22.55;37.27;99956.90;108110;1254;72651;-66
2023/10/30 07:08:31;;;;;;;22.10;11.50;;;;;;;22.65;37.23;99960.79;108141;1254;69144;-67
2023/10/30 07:10:59;;;;;;;16.40;9.20;;;;;;;22.59;37.56;99961.15;107987;1256;72785;-65
2023/10/30 07:13:26;;;;;;;16.80;9.00;;;;;;;22.86;37.05;99959.77;108106;1254;60207;-66
2023/10/30 07:15:53;;;;;;;14.60;8.60;;;;;;;23.20;36.52;99960.85;108240;1253;59135;-66
2023/10/30 07:18:22;;;;;;;15.70;7.80;;;;;;;23.58;35.85;99958.73;108123;1257;72999;-67
2023/10/30 07:20:49;;;;;;;16.10;8.30;;;;;;;23.79;35.13;99953.89;108126;1254;68719;-68
2023/10/30 07:23:17;;;;;;;18.00;8.60;;;;;;;23.97;34.87;99958.09;108114;1254;72670;-67
2023/10/30 07:25:45;;;;;;;14.90;8.80;;;;;;;24.41;34.55;99952.42;108041;1253;60322;-68
2023/10/30 07:28:16;;;;;;;23.60;9.70;;;;;;;24.89;33.90;99952.14;108089;1254;60430;-68
2023/10/30 07:30:43;;;;;;;15.10;9.10;;;;;;;24.88;33.40;99946.35;107915;1260;73862;-67
2023/10/30 07:33:11;;;;;;;15.70;8.90;;;;;;;24.95;33.38;99952.05;108028;1254;69280;-67
2023/10/30 07:35:39;;;;;;;19.90;8.70;;;;;;;24.80;33.57;99947.60;108026;1255;73167;-67
2023/10/30 07:38:06;;;;;;;19.60;8.60;;;;;;;24.57;33.98;99953.15;108040;1254;60331;-66
2023/10/30 07:40:33;;;;;;;15.40;7.80;;;;;;;24.23;34.25;99957.49;108062;1258;60313;-66
2023/10/30 07:43:01;;;;;;;18.30;8.90;;;;;;;23.79;34.83;99955.89;108134;1254;72647;-67
2023/10/30 07:45:28;;;;;;;18.70;8.70;;;;;;;23.69;35.26;99959.29;107980;1253;70302;-66
2023/10/30 07:47:56;;;;;;;18.50;8.50;;;;;;;23.57;35.49;99957.86;107962;1253;75012;-66
2023/10/30 07:50:23;;;;;;;16.50;8.30;;;;;;;23.64;35.48;99954.93;108022;1254;60428;-67
2023/10/30 07:52:51;;;;;;;17.40;9.00;;;;;;;23.70;35.26;99954.91;108098;1254;60364;-68
2023/10/30 07:55:18;;;;;;;16.60;8.50;;;;;;;23.55;35.52;99956.48;108004;1254;74274;-67
2023/10/30 07:57:46;;;;;;;14.20;7.70;;;;;;;23.49;35.76;99958.67;108002;1254;70045;-68
2023/10/30 08:00:15;;;;;;;18.50;8.60;;;;;;;23.14;36.22;99958.84;107929;1254;72946;-67
2023/10/30 08:02:42;;;;;;;17.10;8.10;;;;;;;22.91;36.66;99960.17;108010;1254;60381;-67
2023/10/30 08:05:10;;;;;;;18.10;8.60;;;;;;;22.73;37.07;99959.35;107931;1254;60264;-66
2023/10/30 08:07:38;;;;;;;15.70;7.90;;;;;;;22.63;37.16;99964.52;108025;1254;74007;-67
2023/10/30 08:10:06;;;;;;;14.70;7.20;;;;;;;22.29;37.61;99961.13;107910;1254;70269;-67
2023/10/30 08:12:33;;;;;;;14.10;7.40;;;;;;;22.02;38.36;99965.77;107949;1255;72759;-67
2023/10/30 08:15:01;;;;;;;19.00;7.90;;;;;;;21.70;39.00;99964.67;108073;1255;61313;-66
2023/10/30 08:17:29;;;;;;;15.30;8.30;;;;;;;21.50;39.47;99964.05;108018;1254;60286;-67
2023/10/30 08:19:56;;;;;;;19.20;8.00;;;;;;;21.54;39.43;99966.36;108044;1256;73917;-66
2023/10/30 08:22:24;;;;;;;16.50;7.70;;;;;;;21.54;39.42;99962.13;107896;1255;69628;-67
2023/10/30 08:24:51;;;;;;;16.90;8.30;;;;;;;21.54;39.55;99960.63;107930;1256;70961;-66
2023/10/30 08:27:19;;;;;;;21.70;8.80;;;;;;;21.39;39.66;99963.37;107900;1256;60328;-66
2023/10/30 08:29:46;;;;;;;16.30;8.30;;;;;;;21.13;40.56;99963.38;108010;1255;60296;-67
2023/10/30 08:32:14;;;;;;;20.80;8.30;;;;;;;21.34;40.21;99966.77;107802;1256;73890;-67
2023/10/30 08:34:41;;;;;;;14.70;8.00;;;;;;;21.48;40.39;99961.87;107826;1260;69558;-67
2023/10/30 08:37:09;;;;;;;20.20;8.30;;;;;;;21.40;40.35;99963.98;107848;1255;74782;-66
2023/10/30 08:39:36;;;;;;;19.10;7.90;;;;;;;21.32;40.47;99967.84;107818;1256;60329;-67
2023/10/30 08:42:04;;;;;;;17.20;7.70;;;;;;;21.37;40.43;99961.71;107930;1255;60415;-66
2023/10/30 08:44:33;;;;;;;12.80;6.50;;;;;;;21.38;40.37;99957.13;107928;1256;72608;-66
2023/10/30 08:47:00;;;;;;;17.50;7.40;;;;;;;21.29;40.72;99956.64;107945;1256;70235;-66
2023/10/30 08:49:28;;;;;;;18.20;8.20;;;;;;;21.32;40.79;99954.95;107876;1256;72564;-67
2023/10/30 08:51:56;;;;;;;14.00;7.10;;;;;;;21.42;40.65;99951.52;107915;1256;60481;-67
2023/10/30 08:54:31;;;;;;;13.00;7.40;;;;;;;21.54;40.52;99945.65;107718;1256;60265;-68
2023/10/30 08:56:58;;;;;;;18.70;7.70;;;;;;;21.56;40.46;99941.16;107726;1256;72639;-66
2023/10/30 08:59:29;;;;;;;14.30;7.10;;;;;;;21.73;40.14;99940.12;107841;1254;69625;-66
2023/10/30 09:01:57;;;;;;;16.10;6.80;;;;;;;21.51;40.47;99940.87;107933;1254;74838;-67
2023/10/30 09:04:25;;;;;;;18.20;7.40;;;;;;;21.85;40.18;99938.18;107809;1256;60443;-66
2023/10/30 09:06:52;;;;;;;14.50;7.10;;;;;;;22.07;39.88;99938.36;107937;1254;60024;-67
2023/10/30 09:09:20;;;;;;;20.80;7.40;;;;;;;21.93;39.96;99940.66;107938;1254;74059;-67
2023/10/30 09:11:47;;;;;;;12.00;6.90;;;;;;;21.99;39.86;99939.79;107949;1259;69413;-67
2023/10/30 09:14:15;;;;;;;15.80;7.20;;;;;;;22.15;39.84;99938.06;107978;1254;71451;-67
2023/10/30 09:16:43;;;;;;;18.00;8.10;;;;;;;22.49;39.19;99943.85;108102;1256;60385;-67
2023/10/30 09:19:10;;;;;;;18.90;7.10;;;;;;;22.49;39.12;99941.31;108003;1254;61151;-67
2023/10/30 09:21:38;;;;;;;12.80;6.50;;;;;;;22.31;39.36;99941.81;107977;1259;73866;-67
2023/10/30 09:24:06;;;;;;;14.80;6.70;;;;;;;22.46;39.04;99933.67;108111;1254;68992;-66
2023/10/30 09:26:33;;;;;;;15.40;7.20;;;;;;;22.54;38.78;99927.99;108069;1254;71193;-67
2023/10/30 09:29:00;;;;;;;15.00;6.20;;;;;;;22.06;39.53;99926.47;107985;1255;60604;-67
2023/10/30 09:31:30;;;;;;;13.80;6.00;;;;;;;22.22;39.29;99924.88;107956;1259;61057;-67
2023/10/30 09:36:23;;;;;;;12.80;6.60;;;;;;;21.73;40.67;99926.00;104955;1290;601498;-67
2023/10/30 09:38:50;;;;;;;13.70;6.60;;;;;;;22.95;38.34;99924.08;107285;1264;60088;-67
2023/10/30 09:41:18;;;;;;;12.50;6.20;;;;;;;23.25;37.98;99926.83;107292;1264;59238;-67
2023/10/30 09:43:47;;;;;;;11.40;5.70;;;;;;;23.34;37.42;99920.45;107343;1264;72308;-66
2023/10/30 09:46:15;;;;;;;14.40;5.50;;;;;;;23.25;37.30;99924.17;107338;1265;70055;-67
2023/10/30 09:48:44;;;;;;;13.50;6.00;;;;;;;23.36;37.26;99924.94;107289;1264;71917;-67
2023/10/30 09:51:12;;;;;;;16.00;6.00;;;;;;;23.57;36.79;99920.09;107309;1263;192895;-66
2023/10/30 09:53:39;;;;;;;15.90;5.60;;;;;;;23.64;36.62;99912.04;107412;1263;60073;-67
2023/10/30 09:56:07;;;;;;;13.90;5.70;;;;;;;23.66;36.47;99902.70;108261;1256;71191;-67
2023/10/30 09:58:38;;;;;;;15.10;6.40;;;;;;;24.10;36.12;99899.23;108285;1256;70041;-67
2023/10/30 10:01:05;;;;;;;11.90;5.50;;;;;;;24.92;35.23;99894.89;108077;1254;73772;-68
2023/10/30 10:03:33;;;;;;;15.10;5.30;;;;;;;25.67;34.18;99893.19;107957;1261;59499;-69
2023/10/30 10:06:01;;;;;;;11.30;5.00;;;;;;;26.32;32.90;99893.20;108128;1254;59006;-67
2023/10/30 10:08:28;;;;;;;10.10;5.00;;;;;;;26.64;31.80;99890.52;108145;1254;74019;-68
2023/10/30 10:10:57;;;;;;;9.80;4.50;;;;;;;26.73;31.70;99886.86;108178;1253;69214;-67
2023/10/30 10:13:27;;;;;;;12.70;5.10;;;;;;;26.44;32.05;99886.39;108207;1252;71834;-67
2023/10/30 10:15:56;;;;;;;10.70;5.10;;;;;;;26.45;32.09;99883.48;108112;1255;59740;-67
2023/10/30 10:18:28;;;;;;;11.50;4.50;;;;;;;26.54;31.96;99880.27;108144;1252;59487;-67
2023/10/30 10:21:01;;;;;;;10.10;5.50;;;;;;;26.17;32.00;99882.91;108084;1254;73819;-67
2023/10/30 10:23:33;;;;;;;9.90;5.00;;;;;;;26.15;32.15;99886.77;108109;1254;69116;-68
2023/10/30 10:26:05;;;;;;;9.20;4.50;;;;;;;26.41;32.00;99893.88;108084;1256;72022;-68
2023/10/30 10:28:33;;;;;;;12.80;5.10;;;;;;;26.33;31.83;99889.73;108094;1253;59482;-67
2023/10/30 10:31:00;;;;;;;11.70;5.40;;;;;;;26.39;31.94;99890.09;108036;1254;60277;-68
2023/10/30 10:33:28;;;;;;;10.60;5.20;;;;;;;26.40;31.92;99883.71;108093;1254;72185;-67
2023/10/30 10:36:03;;;;;;;11.70;5.10;;;;;;;26.75;31.44;99879.77;108108;1254;70381;-66
2023/10/30 10:38:31;;;;;;;9.20;5.50;;;;;;;26.83;31.16;99876.52;108191;1259;72741;-67
2023/10/30 10:40:59;;;;;;;10.10;5.40;;;;;;;26.64;31.39;99877.59;108093;1257;61183;-68
2023/10/30 10:43:28;;;;;;;16.00;5.40;;;;;;;26.50;31.68;99872.71;108132;1253;60248;-67
2023/10/30 10:45:56;;;;;;;13.10;4.90;;;;;;;26.46;32.30;99872.48;108203;1254;72303;-67
2023/10/30 10:48:25;;;;;;;13.80;5.30;;;;;;;26.73;31.68;99871.67;108061;1254;70469;-66
2023/10/30 10:50:54;;;;;;;16.00;5.30;;;;;;;27.14;31.28;99865.02;108022;1254;72921;-67
2023/10/30 10:53:23;;;;;;;13.80;5.30;;;;;;;26.97;31.43;99866.85;108035;1254;62260;-66
2023/10/30 10:55:50;;;;;;;14.10;5.10;;;;;;;27.16;31.38;99859.74;107952;1254;62327;-67
2023/10/30 10:58:36;;;;;;;12.60;5.30;;;;;;;27.07;31.26;99862.02;108077;1254;74419;-67
2023/10/30 11:01:05;;;;;;;11.70;5.40;;;;;;;26.75;31.59;99861.70;108102;1254;69037;-67
2023/10/30 11:03:33;;;;;;;11.00;4.70;;;;;;;26.88;31.69;99860.48;108202;1254;74849;-67
2023/10/30 11:06:03;;;;;;;18.70;5.40;;;;;;;26.48;32.03;99856.39;107969;1254;60085;-67
2023/10/30 11:08:56;;;;;;;13.20;5.10;;;;;;;26.42;32.30;99854.71;107994;1253;59125;-66
2023/10/30 11:11:30;;;;;;;13.00;4.70;;;;;;;26.35;32.37;99853.09;108186;1254;74241;-67
2023/10/30 11:14:29;;;;;;;10.00;4.90;;;;;;;26.61;32.09;99851.73;108204;1254;70308;-67
2023/10/30 11:17:03;;;;;;;17.50;5.00;;;;;;;27.17;31.29;99854.47;108173;1253;71457;-67
2023/10/30 11:19:32;;;;;;;9.40;5.10;;;;;;;28.09;30.50;99842.11;108172;1254;60344;-68